createdAt,value
2022-09-04T00:01:52.932Z,44.00
2022-09-04T00:04:30.592Z,44.13
2022-09-04T00:07:08.355Z,44.10
2022-09-04T00:09:42.941Z,43.99
2022-09-04T00:12:12.010Z,43.95
2022-09-04T00:14:45.358Z,44.29
2022-09-04T00:17:20.245Z,44.08
2022-09-04T00:19:54.374Z,44.21
2022-09-04T00:22:30.716Z,44.29
2022-09-04T00:25:15.632Z,44.57
2022-09-04T00:27:48.401Z,44.61
2022-09-04T00:30:19.002Z,44.68
2022-09-04T00:32:52.685Z,44.70
2022-09-04T00:35:27.651Z,44.50
2022-09-04T00:38:02.336Z,44.84
2022-09-04T00:40:33.338Z,44.86
2022-09-04T00:43:26.092Z,44.91
2022-09-04T00:46:13.742Z,44.90
2022-09-04T00:49:18.950Z,45.06
2022-09-04T00:51:55.147Z,45.33
2022-09-04T00:54:39.785Z,45.34
2022-09-04T00:57:37.622Z,45.51
2022-09-04T01:00:09.176Z,45.46
2022-09-04T01:02:56.487Z,45.66
2022-09-04T01:05:39.955Z,45.59
2022-09-04T01:08:21.087Z,45.64
2022-09-04T01:11:00.915Z,45.76
2022-09-04T01:13:35.564Z,45.82
2022-09-04T01:16:09.378Z,45.80
2022-09-04T01:18:47.515Z,45.91
2022-09-04T01:21:29.929Z,46.32
2022-09-04T01:24:34.392Z,46.33
2022-09-04T01:27:08.118Z,45.99
2022-09-04T01:29:47.003Z,46.26
2022-09-04T01:32:29.646Z,46.40
2022-09-04T01:35:05.456Z,46.48
2022-09-04T01:37:43.889Z,46.57
2022-09-04T01:40:35.749Z,46.48
2022-09-04T01:43:09.446Z,46.73
2022-09-04T01:45:57.553Z,46.69
2022-09-04T01:48:39.149Z,46.76
2022-09-04T01:51:09.371Z,47.66
2022-09-04T01:53:42.274Z,47.08
2022-09-04T01:56:15.947Z,47.12
2022-09-04T01:58:52.913Z,47.35
2022-09-04T02:01:31.873Z,47.31
2022-09-04T02:04:05.551Z,47.41
2022-09-04T02:06:40.321Z,47.43
2022-09-04T02:09:19.397Z,47.61
2022-09-04T02:11:56.851Z,47.72
2022-09-04T02:14:39.901Z,47.89
2022-09-04T02:17:11.032Z,47.97
2022-09-04T02:19:59.061Z,47.87
2022-09-04T02:22:44.517Z,47.87
2022-09-04T02:25:24.731Z,48.09
2022-09-04T02:28:01.191Z,48.20
2022-09-04T02:30:36.075Z,48.23
2022-09-04T02:33:09.803Z,48.32
2022-09-04T02:35:43.854Z,48.30
2022-09-04T02:38:21.959Z,48.86
2022-09-04T02:40:52.555Z,48.54
2022-09-04T02:43:38.239Z,48.53
2022-09-04T02:46:16.811Z,49.09
2022-09-04T02:49:00.512Z,48.84
2022-09-04T02:51:42.544Z,48.96
2022-09-04T02:54:19.944Z,48.79
2022-09-04T02:57:00.088Z,48.71
2022-09-04T02:59:41.448Z,48.87
2022-09-04T03:02:19.307Z,48.75
2022-09-04T03:04:52.720Z,48.95
2022-09-04T03:07:27.843Z,49.23
2022-09-04T03:10:05.910Z,49.13
2022-09-04T03:12:40.167Z,49.13
2022-09-04T03:15:17.937Z,49.24
2022-09-04T03:17:51.442Z,49.39
2022-09-04T03:20:24.292Z,49.44
2022-09-04T03:23:00.552Z,49.57
2022-09-04T03:25:48.936Z,49.66
2022-09-04T03:28:23.898Z,49.74
2022-09-04T03:30:52.615Z,49.79
2022-09-04T03:33:30.541Z,50.04
2022-09-04T03:36:03.102Z,50.15
2022-09-04T03:38:37.435Z,50.09
2022-09-04T03:41:13.799Z,50.06
2022-09-04T03:44:06.783Z,50.32
2022-09-04T03:46:45.452Z,50.40
2022-09-04T03:49:23.190Z,50.35
2022-09-04T03:52:00.212Z,50.38
2022-09-04T03:54:50.158Z,50.68
2022-09-04T03:57:31.879Z,50.77
2022-09-04T04:00:09.243Z,50.63
2022-09-04T04:02:53.810Z,50.76
2022-09-04T04:05:26.841Z,50.65
2022-09-04T04:08:09.781Z,50.78
2022-09-04T04:10:49.391Z,50.90
2022-09-04T04:13:36.897Z,51.49
2022-09-04T04:16:24.830Z,51.40
2022-09-04T04:19:08.685Z,51.21
2022-09-04T04:21:48.745Z,51.38
2022-09-04T04:24:35.483Z,51.45
2022-09-04T04:27:18.129Z,51.20
2022-09-04T04:30:00.673Z,51.19
2022-09-04T04:32:43.142Z,51.40
2022-09-04T04:35:23.968Z,51.40
2022-09-04T04:38:04.389Z,51.35
2022-09-04T04:40:55.294Z,52.02
2022-09-04T04:43:31.360Z,51.59
2022-09-04T04:46:04.792Z,51.52
2022-09-04T04:49:02.904Z,51.88
2022-09-04T04:51:49.330Z,51.84
2022-09-04T04:54:40.849Z,51.85
2022-09-04T04:57:24.988Z,51.86
2022-09-04T05:00:02.717Z,52.00
2022-09-04T05:02:37.827Z,51.98
2022-09-04T05:05:13.369Z,52.12
2022-09-04T05:07:48.272Z,52.36
2022-09-04T05:10:20.242Z,52.32
2022-09-04T05:13:03.604Z,52.37
2022-09-04T05:15:53.001Z,52.95
2022-09-04T05:18:31.629Z,52.69
2022-09-04T05:21:08.882Z,52.99
2022-09-04T05:23:41.792Z,53.03
2022-09-04T05:26:19.439Z,53.02
2022-09-04T05:28:56.160Z,53.10
2022-09-04T05:31:37.741Z,52.84
2022-09-04T05:34:10.109Z,53.12
2022-09-04T05:36:49.853Z,52.90
2022-09-04T05:39:27.184Z,52.97
2022-09-04T05:42:08.766Z,52.86
2022-09-04T05:44:47.232Z,53.09
2022-09-04T05:47:31.407Z,53.56
2022-09-04T05:50:14.190Z,53.45
2022-09-04T05:53:04.281Z,53.34
2022-09-04T05:56:03.824Z,54.05
2022-09-04T05:58:54.096Z,53.54
2022-09-04T06:01:35.845Z,53.65
2022-09-04T06:04:39.176Z,53.95
2022-09-04T06:07:12.198Z,53.46
2022-09-04T06:09:58.667Z,53.75
2022-09-04T06:12:47.314Z,53.69
2022-09-04T06:15:36.417Z,53.83
2022-09-04T06:18:38.548Z,53.89
2022-09-04T06:21:16.080Z,53.92
2022-09-04T06:24:07.464Z,53.86
2022-09-04T06:26:50.565Z,53.91
2022-09-04T06:29:37.623Z,53.95
2022-09-04T06:32:40.125Z,54.16
2022-09-04T06:35:35.412Z,54.58
2022-09-04T06:38:13.751Z,54.13
2022-09-04T06:40:52.357Z,54.41
2022-09-04T06:43:29.742Z,54.22
2022-09-04T06:46:09.439Z,54.33
2022-09-04T06:48:50.379Z,54.07
2022-09-04T06:51:29.628Z,53.97
2022-09-04T06:54:09.371Z,53.75
2022-09-04T06:56:54.551Z,54.00
2022-09-04T06:59:42.014Z,53.84
2022-09-04T07:02:25.981Z,53.82
2022-09-04T07:05:04.057Z,53.68
2022-09-04T07:07:39.154Z,53.75
2022-09-04T07:10:12.718Z,53.67
2022-09-04T07:13:14.854Z,53.80
2022-09-04T07:16:05.815Z,54.09
2022-09-04T07:18:52.421Z,53.52
2022-09-04T07:21:27.770Z,53.38
2022-09-04T07:24:04.911Z,53.99
2022-09-04T07:26:42.793Z,53.48
2022-09-04T07:29:26.070Z,53.49
2022-09-04T07:32:02.004Z,53.73
2022-09-04T07:34:39.780Z,53.52
2022-09-04T07:37:28.894Z,53.31
2022-09-04T07:40:06.819Z,52.97
2022-09-04T07:42:44.365Z,53.23
2022-09-04T07:45:22.185Z,52.96
2022-09-04T07:47:57.632Z,53.38
2022-09-04T07:50:33.032Z,52.86
2022-09-04T07:53:25.582Z,52.83
2022-09-04T07:55:59.754Z,52.93
2022-09-04T07:58:47.577Z,52.93
2022-09-04T08:01:43.952Z,52.79
2022-09-04T08:04:30.978Z,53.07
2022-09-04T08:07:00.672Z,52.74
2022-09-04T08:09:43.492Z,52.78
2022-09-04T08:12:48.520Z,52.55
2022-09-04T08:15:19.883Z,52.38
2022-09-04T08:18:13.779Z,52.60
2022-09-04T08:20:49.215Z,52.18
2022-09-04T08:23:42.559Z,52.20
2022-09-04T08:26:19.303Z,51.81
2022-09-04T08:29:09.195Z,51.99
2022-09-04T08:31:41.906Z,51.54
2022-09-04T08:34:34.760Z,52.00
2022-09-04T08:37:13.126Z,51.44
2022-09-04T08:39:58.021Z,51.28
2022-09-04T08:42:51.681Z,51.33
2022-09-04T08:45:50.590Z,50.98
2022-09-04T08:48:39.482Z,50.69
2022-09-04T08:51:36.764Z,50.72
2022-09-04T08:54:32.083Z,50.49
2022-09-04T08:57:37.104Z,50.45
2022-09-04T09:00:10.067Z,49.62
2022-09-04T09:03:20.682Z,49.53
2022-09-04T09:06:15.224Z,49.57
2022-09-04T09:09:29.675Z,49.11
2022-09-04T09:12:40.734Z,48.89
2022-09-04T09:15:43.808Z,49.13
2022-09-04T09:18:33.818Z,49.56
2022-09-04T09:21:06.891Z,49.21
2022-09-04T09:23:39.496Z,48.82
2022-09-04T09:26:26.118Z,48.41
2022-09-04T09:29:27.401Z,48.14
2022-09-04T09:32:45.118Z,47.68
2022-09-04T09:35:50.395Z,46.68
2022-09-04T09:39:06.245Z,47.02
2022-09-04T09:41:54.542Z,46.51
2022-09-04T09:45:11.057Z,46.56
2022-09-04T09:48:11.499Z,45.91
2022-09-04T09:51:06.418Z,44.91
2022-09-04T09:54:11.897Z,45.56
2022-09-04T09:57:02.060Z,44.72
2022-09-04T09:59:58.268Z,44.07
2022-09-04T10:03:04.080Z,40.35
2022-09-04T10:06:18.121Z,41.46
2022-09-04T10:09:22.066Z,38.54
2022-09-04T10:12:18.186Z,39.70
2022-09-04T10:15:27.887Z,37.29
2022-09-04T10:18:42.920Z,38.19
2022-09-04T10:21:35.663Z,37.80
2022-09-04T10:24:36.203Z,37.59
2022-09-04T10:27:43.807Z,36.81
2022-09-04T10:30:15.181Z,37.58
2022-09-04T10:33:19.534Z,35.42
2022-09-04T10:36:00.700Z,35.87
2022-09-04T10:38:39.172Z,36.47
2022-09-04T10:41:29.203Z,34.17
2022-09-04T10:44:12.861Z,33.72
2022-09-04T10:46:52.404Z,34.16
2022-09-04T10:50:05.822Z,32.90
2022-09-04T10:53:27.145Z,33.51
2022-09-04T10:56:24.581Z,33.09
2022-09-04T10:59:18.477Z,33.31
2022-09-04T11:02:27.251Z,31.00
2022-09-04T11:05:21.530Z,30.74
2022-09-04T11:08:06.019Z,32.16
2022-09-04T11:11:04.851Z,30.73
2022-09-04T11:13:59.829Z,30.19
2022-09-04T11:16:58.102Z,30.38
2022-09-04T11:20:08.434Z,30.47
2022-09-04T11:23:12.988Z,30.29
2022-09-04T11:26:03.681Z,29.35
2022-09-04T11:28:50.731Z,29.91
2022-09-04T11:31:32.421Z,29.20
2022-09-04T11:34:43.056Z,29.55
2022-09-04T11:37:39.582Z,28.57
2022-09-04T11:41:02.135Z,28.73
2022-09-04T11:48:09.101Z,29.23
2022-09-04T11:51:02.531Z,29.70
2022-09-04T11:53:58.816Z,30.04
2022-09-04T11:57:11.093Z,30.00
2022-09-04T12:00:06.046Z,30.48
2022-09-04T12:06:23.932Z,30.86
2022-09-04T12:09:30.370Z,30.75
2022-09-04T12:12:25.731Z,30.88
2022-09-04T12:15:12.898Z,31.29
2022-09-04T12:18:16.356Z,31.80
2022-09-04T12:21:32.468Z,30.36
2022-09-04T12:24:25.899Z,30.27
2022-09-04T12:27:21.787Z,29.71
2022-09-04T12:30:05.396Z,30.88
2022-09-04T12:33:00.570Z,29.53
2022-09-04T12:35:55.338Z,29.80
2022-09-04T12:39:01.132Z,29.21
2022-09-04T12:41:35.160Z,29.37
2022-09-04T12:44:11.204Z,29.85
2022-09-04T12:46:52.585Z,29.88
2022-09-04T12:49:34.699Z,29.23
2022-09-04T12:52:13.970Z,29.15
2022-09-04T12:54:51.898Z,29.10
2022-09-04T12:57:29.960Z,28.98
2022-09-04T13:00:04.509Z,29.25
2022-09-04T13:02:40.458Z,30.10
2022-09-04T13:05:30.085Z,29.94
2022-09-04T13:08:05.869Z,30.57
2022-09-04T13:10:43.893Z,30.75
2022-09-04T13:13:23.482Z,31.11
2022-09-04T13:15:58.358Z,30.65
2022-09-04T13:18:42.841Z,31.30
2022-09-04T13:21:24.245Z,30.68
2022-09-04T13:24:16.173Z,30.96
2022-09-04T13:26:59.694Z,31.33
2022-09-04T13:29:34.758Z,32.14
2022-09-04T13:32:28.211Z,31.62
2022-09-04T13:35:12.317Z,31.63
2022-09-04T13:37:56.487Z,31.63
2022-09-04T13:40:46.945Z,31.29
2022-09-04T13:43:51.195Z,31.34
2022-09-04T13:46:21.157Z,31.59
2022-09-04T13:48:53.063Z,31.01
2022-09-04T13:51:24.820Z,31.11
2022-09-04T13:54:06.757Z,30.37
2022-09-04T13:56:38.526Z,31.10
2022-09-04T13:59:09.542Z,30.68
2022-09-04T14:01:39.840Z,30.78
2022-09-04T14:04:11.610Z,30.84
2022-09-04T14:06:39.441Z,31.02
2022-09-04T14:09:07.560Z,30.43
2022-09-04T14:12:04.307Z,30.55
2022-09-04T14:15:18.435Z,31.86
2022-09-04T14:17:55.309Z,32.16
2022-09-04T14:20:26.448Z,31.00
2022-09-04T14:23:04.166Z,31.27
2022-09-04T14:25:40.459Z,31.08
2022-09-04T14:28:19.518Z,31.04
2022-09-04T14:30:59.666Z,31.49
2022-09-04T14:33:35.507Z,30.64
2022-09-04T14:36:15.816Z,30.72
2022-09-04T14:38:57.097Z,30.74
2022-09-04T14:41:39.709Z,30.70
2022-09-04T14:44:19.079Z,31.52
2022-09-04T14:46:57.328Z,31.21
2022-09-04T14:49:27.585Z,31.21
2022-09-04T14:51:56.040Z,32.23
2022-09-04T14:54:28.379Z,31.57
2022-09-04T14:57:00.084Z,30.49
2022-09-04T14:59:34.131Z,30.07
2022-09-04T15:02:25.324Z,29.49
2022-09-04T15:05:01.029Z,29.57
2022-09-04T15:07:49.620Z,29.93
2022-09-04T15:10:21.347Z,29.70
2022-09-04T15:12:55.607Z,30.23
2022-09-04T15:15:29.288Z,30.00
2022-09-04T15:18:04.223Z,29.90
2022-09-04T15:20:38.053Z,29.19
2022-09-04T15:23:14.365Z,29.21
2022-09-04T15:25:59.736Z,28.91
2022-09-04T15:28:32.292Z,29.58
2022-09-04T15:31:08.067Z,30.63
2022-09-04T15:33:37.443Z,31.29
2022-09-04T15:36:14.638Z,29.89
2022-09-04T15:38:48.123Z,29.71
2022-09-04T15:41:18.756Z,29.99
2022-09-04T15:43:47.911Z,30.61
2022-09-04T15:46:22.458Z,30.95
2022-09-04T15:48:55.835Z,31.31
2022-09-04T15:51:36.074Z,31.71
2022-09-04T15:54:26.980Z,32.49
2022-09-04T15:57:02.902Z,32.29
2022-09-04T15:59:43.432Z,33.28
2022-09-04T16:02:30.617Z,33.41
2022-09-04T16:05:06.091Z,33.44
2022-09-04T16:07:45.443Z,33.77
2022-09-04T16:10:20.538Z,33.92
2022-09-04T16:12:56.565Z,34.16
2022-09-04T16:15:26.922Z,34.88
2022-09-04T16:17:55.507Z,34.70
2022-09-04T16:20:33.200Z,35.06
2022-09-04T16:23:04.284Z,35.04
2022-09-04T16:25:32.674Z,36.18
2022-09-04T16:28:03.579Z,35.70
2022-09-04T16:30:38.152Z,35.75
2022-09-04T16:33:12.923Z,35.88
2022-09-04T16:35:50.929Z,36.12
2022-09-04T16:38:24.219Z,36.22
2022-09-04T16:40:56.111Z,36.18
2022-09-04T16:43:26.678Z,36.18
2022-09-04T16:46:29.450Z,36.91
2022-09-04T16:49:03.291Z,36.61
2022-09-04T16:51:40.995Z,36.77
2022-09-04T16:54:17.826Z,36.85
2022-09-04T16:56:50.187Z,37.19
2022-09-04T16:59:27.597Z,37.44
2022-09-04T17:02:01.678Z,37.53
2022-09-04T17:04:39.731Z,37.60
2022-09-04T17:07:16.756Z,37.96
2022-09-04T17:09:55.100Z,38.13
2022-09-04T17:12:30.564Z,38.27
2022-09-04T17:15:09.756Z,38.33
2022-09-04T17:17:42.059Z,38.48
2022-09-04T17:20:12.625Z,38.51
2022-09-04T17:27:56.932Z,38.53
2022-09-04T17:29:11.130Z,38.99
2022-09-04T17:29:19.622Z,39.07
2022-09-04T17:31:49.722Z,38.88
2022-09-04T17:40:36.664Z,39.36
2022-09-04T17:40:38.086Z,39.42
2022-09-04T17:40:56.728Z,38.86
2022-09-04T17:43:24.243Z,39.70
2022-09-04T17:46:06.960Z,39.71
2022-09-04T17:48:40.846Z,39.58
2022-09-04T17:51:07.770Z,39.84
2022-09-04T17:53:38.542Z,39.78
2022-09-04T17:56:14.174Z,40.00
2022-09-04T17:58:49.341Z,39.81
2022-09-04T18:01:22.530Z,40.72
2022-09-04T18:04:21.829Z,40.15
2022-09-04T18:06:57.848Z,40.60
2022-09-04T18:09:32.112Z,40.50
2022-09-04T18:12:14.040Z,40.32
2022-09-04T18:15:18.397Z,40.65
2022-09-04T18:18:10.254Z,40.53
2022-09-04T18:20:51.616Z,40.51
2022-09-04T18:23:52.358Z,41.54
2022-09-04T18:26:27.972Z,40.59
2022-09-04T18:30:53.271Z,40.89
2022-09-04T18:37:10.234Z,41.18
2022-09-04T18:37:24.421Z,41.18
2022-09-04T18:38:15.905Z,41.15
2022-09-04T18:44:44.536Z,41.14
2022-09-04T18:50:35.601Z,40.94
2022-09-04T18:50:40.194Z,41.34
2022-09-04T18:50:43.189Z,41.18
2022-09-04T18:52:13.991Z,41.35
2022-09-04T18:54:47.609Z,41.55
2022-09-04T18:57:27.273Z,41.32
2022-09-04T19:00:08.807Z,41.22
2022-09-04T19:02:53.142Z,41.09
2022-09-04T19:05:36.472Z,41.33
2022-09-04T19:08:19.899Z,41.18
2022-09-04T19:10:54.052Z,41.36
2022-09-04T19:13:27.501Z,41.46
2022-09-04T19:16:09.963Z,41.69
2022-09-04T19:18:53.365Z,41.55
2022-09-04T19:21:31.796Z,42.02
2022-09-04T19:24:10.587Z,41.74
2022-09-04T19:26:43.103Z,41.77
2022-09-04T19:29:20.693Z,41.88
2022-09-04T19:31:54.586Z,41.73
2022-09-04T19:34:30.717Z,42.12
2022-09-04T19:37:30.168Z,42.39
2022-09-04T19:45:56.803Z,42.42
2022-09-04T19:46:11.287Z,42.64
2022-09-04T19:46:14.473Z,42.53
2022-09-04T19:48:58.610Z,42.81
2022-09-04T19:59:57.805Z,43.01
2022-09-04T20:02:53.641Z,43.57
2022-09-04T20:05:50.485Z,43.94
2022-09-04T20:08:27.852Z,43.64
2022-09-04T20:11:01.664Z,43.84
2022-09-04T20:13:35.140Z,43.76
2022-09-04T20:16:17.076Z,44.04
2022-09-04T20:18:54.592Z,44.00
2022-09-04T20:21:25.541Z,44.22
2022-09-04T20:24:01.788Z,43.88
2022-09-04T20:26:38.205Z,44.22
2022-09-04T20:29:18.874Z,44.30
2022-09-04T20:32:02.287Z,44.27
2022-09-04T20:34:43.567Z,44.80
2022-09-04T20:37:30.643Z,44.79
2022-09-04T20:40:07.522Z,44.64
2022-09-04T20:42:41.434Z,44.85
2022-09-04T20:48:44.275Z,44.97
2022-09-04T20:52:51.517Z,45.12
2022-09-04T20:52:54.417Z,44.93
2022-09-04T20:54:28.794Z,45.44
2022-09-04T21:00:31.407Z,45.30
2022-09-04T21:03:17.499Z,45.95
2022-09-04T21:03:17.779Z,45.85
2022-09-04T21:06:06.994Z,45.95
2022-09-04T21:08:43.363Z,45.92
2022-09-04T21:11:39.165Z,45.96
2022-09-04T21:14:11.021Z,46.01
2022-09-04T21:16:54.120Z,46.31
2022-09-04T21:19:41.947Z,46.20
2022-09-04T21:22:33.247Z,46.26
2022-09-04T21:25:31.621Z,46.40
2022-09-04T21:28:36.825Z,46.75
2022-09-04T21:31:30.846Z,46.68
2022-09-04T21:34:16.978Z,46.81
2022-09-04T21:36:49.650Z,47.03
2022-09-04T21:39:58.589Z,47.42
2022-09-04T21:42:55.240Z,47.43
2022-09-04T21:45:41.801Z,47.31
2022-09-04T21:48:33.423Z,47.66
2022-09-04T21:51:28.857Z,47.86
2022-09-04T21:54:38.328Z,48.03
2022-09-04T22:02:37.645Z,48.28
2022-09-04T22:02:37.962Z,48.01
2022-09-04T22:04:18.546Z,48.21
2022-09-04T22:11:06.637Z,48.53
2022-09-04T22:13:30.042Z,48.72
2022-09-04T22:13:39.071Z,49.09
2022-09-04T22:16:19.004Z,48.99
2022-09-04T22:19:16.785Z,49.44
2022-09-04T22:22:03.378Z,49.32
2022-09-04T22:25:04.356Z,49.55
2022-09-04T22:28:14.523Z,49.39
2022-09-04T22:31:02.342Z,49.82
2022-09-04T22:34:14.951Z,50.06
2022-09-04T22:37:14.472Z,49.84
2022-09-04T22:40:09.926Z,50.17
2022-09-04T22:42:44.909Z,50.38
2022-09-04T22:56:24.699Z,50.27
2022-09-04T22:59:27.730Z,50.48
2022-09-04T23:02:30.687Z,50.87
2022-09-04T23:05:30.212Z,50.72
2022-09-04T23:13:45.050Z,51.11
2022-09-04T23:13:56.886Z,51.52
2022-09-04T23:14:49.347Z,51.50
2022-09-04T23:17:32.321Z,51.95
2022-09-04T23:26:33.492Z,51.85
2022-09-04T23:26:48.843Z,52.02
2022-09-04T23:27:00.234Z,51.80
2022-09-04T23:30:02.927Z,52.13
2022-09-04T23:32:49.881Z,53.11
2022-09-04T23:35:31.211Z,52.09
2022-09-04T23:38:17.970Z,52.44
2022-09-04T23:40:52.091Z,52.21
2022-09-04T23:44:10.108Z,52.65
2022-09-04T23:46:59.855Z,52.85
2022-09-04T23:49:54.722Z,52.62
2022-09-04T23:52:31.584Z,52.88
2022-09-04T23:55:15.693Z,53.20
2022-09-04T23:57:50.305Z,53.34
